Time;durP1;ratioP1;P1;durP2;ratioP2;P2;SDS_P1;SDS_P2;PMS_P1;PMS_P2;Temp;Humidity;BMP_temperature;BMP_pressure;BME280_temperature;BME280_humidity;BME280_pressure;Samples;Min_cycle;Max_cycle;Signal;HPM_P1;HPM_P2
2022/05/12 00:00:06;;;;;;;3.00;2.70;;;21.30;58.60;;;;;;6104911;23;20521;-87
2022/05/12 00:02:35;;;;;;;2.80;2.43;;;21.20;58.50;;;;;;6099536;23;20523;-87
2022/05/12 00:05:02;;;;;;;2.90;2.60;;;21.00;58.50;;;;;;6112429;23;20458;-87
2022/05/12 00:07:29;;;;;;;2.70;2.50;;;20.90;59.10;;;;;;6114364;23;20471;-87
2022/05/12 00:09:56;;;;;;;3.20;2.20;;;20.80;59.10;;;;;;6103382;23;20533;-87
2022/05/12 00:12:23;;;;;;;2.70;2.57;;;20.70;59.40;;;;;;6096966;23;20533;-88
2022/05/12 00:14:51;;;;;;;2.90;2.70;;;20.60;59.40;;;;;;6099373;23;20466;-87
2022/05/12 00:17:18;;;;;;;3.37;2.77;;;20.60;59.70;;;;;;6101339;23;20453;-87
2022/05/12 00:19:47;;;;;;;3.03;2.80;;;20.50;60.10;;;;;;6078456;23;20454;-87
2022/05/12 00:22:14;;;;;;;2.80;2.60;;;20.50;61.10;;;;;;6109034;23;20836;-88
2022/05/12 00:24:41;;;;;;;2.77;2.57;;;20.50;60.70;;;;;;6090328;23;20471;-87
2022/05/12 00:27:08;;;;;;;2.87;2.67;;;20.50;61.10;;;;;;6104698;23;20505;-87
2022/05/12 00:29:34;;;;;;;2.97;2.67;;;20.40;61.30;;;;;;6099119;23;20518;-88
2022/05/12 00:32:02;;;;;;;2.80;2.60;;;20.30;61.60;;;;;;6097409;23;20530;-87
2022/05/12 00:34:29;;;;;;;3.33;3.13;;;20.30;61.80;;;;;;6078156;23;20464;-87
2022/05/12 00:36:57;;;;;;;3.07;2.87;;;20.20;61.90;;;;;;6098502;23;20465;-87
2022/05/12 00:39:24;;;;;;;2.70;2.50;;;20.20;62.00;;;;;;6091166;23;20446;-87
2022/05/12 00:41:51;;;;;;;3.03;2.60;;;20.20;62.10;;;;;;6104112;23;20832;-87
2022/05/12 00:44:18;;;;;;;2.80;2.60;;;20.20;62.20;;;;;;6107027;23;20434;-87
2022/05/12 00:46:49;;;;;;;2.90;2.70;;;20.20;62.50;;;;;;6104411;23;20470;-88
2022/05/12 00:49:21;;;;;;;2.90;2.57;;;20.20;62.60;;;;;;6102033;23;20528;-87
2022/05/12 00:51:53;;;;;;;2.80;2.60;;;20.10;62.50;;;;;;6093874;23;20459;-88
2022/05/12 00:54:27;;;;;;;4.90;2.90;;;20.10;62.80;;;;;;6100422;23;20437;-87
2022/05/12 00:56:54;;;;;;;2.70;2.50;;;20.10;63.00;;;;;;6106287;23;20500;-88
2022/05/12 00:59:28;;;;;;;2.90;2.70;;;20.10;63.10;;;;;;6117777;23;20549;-87
2022/05/12 01:01:57;;;;;;;3.07;2.87;;;20.10;63.30;;;;;;6101930;23;20454;-87
2022/05/12 01:04:25;;;;;;;3.67;3.07;;;20.10;63.50;;;;;;6094497;23;20442;-87
2022/05/12 01:06:52;;;;;;;3.03;2.83;;;20.10;63.60;;;;;;6100699;23;20532;-86
2022/05/12 01:09:21;;;;;;;3.10;2.90;;;20.10;63.70;;;;;;6091903;23;20442;-87
2022/05/12 01:11:48;;;;;;;3.07;2.77;;;20.10;64.80;;;;;;6104013;23;21047;-87
2022/05/12 01:14:16;;;;;;;3.00;2.70;;;20.10;64.30;;;;;;6099759;23;20445;-87
2022/05/12 01:16:46;;;;;;;3.57;2.90;;;20.10;64.50;;;;;;6101081;23;20926;-87
2022/05/12 01:19:16;;;;;;;3.23;2.93;;;20.10;65.10;;;;;;6096965;23;20448;-87
2022/05/12 01:21:44;;;;;;;3.30;3.10;;;20.00;65.40;;;;;;6111924;23;20466;-87
2022/05/12 01:24:13;;;;;;;3.57;3.10;;;20.10;66.00;;;;;;6096573;23;20533;-86
2022/05/12 01:26:40;;;;;;;3.50;3.20;;;20.10;66.00;;;;;;6096784;23;20442;-86
2022/05/12 01:29:08;;;;;;;4.07;3.33;;;20.10;66.60;;;;;;6090108;23;20473;-87
2022/05/12 01:31:36;;;;;;;3.20;2.80;;;20.10;67.80;;;;;;6101275;23;20476;-87
2022/05/12 01:34:05;;;;;;;4.37;3.20;;;20.20;68.80;;;;;;6089860;23;20451;-87
2022/05/12 01:36:33;;;;;;;3.10;2.90;;;20.20;69.40;;;;;;6093266;23;20527;-87
2022/05/12 01:39:01;;;;;;;3.07;2.87;;;20.20;70.00;;;;;;6100064;23;20470;-87
2022/05/12 01:41:29;;;;;;;4.13;2.70;;;20.40;71.10;;;;;;6096527;23;20515;-86
2022/05/12 01:43:56;;;;;;;3.27;3.00;;;20.40;71.80;;;;;;6106879;23;20533;-88
2022/05/12 01:46:23;;;;;;;4.03;3.23;;;20.40;72.30;;;;;;6102231;23;20450;-87
2022/05/12 01:48:50;;;;;;;3.13;2.93;;;20.40;73.00;;;;;;6111288;23;20543;-88
2022/05/12 01:51:17;;;;;;;3.80;3.50;;;20.50;73.30;;;;;;6102922;23;20461;-87
2022/05/12 01:53:44;;;;;;;3.73;2.83;;;20.50;73.10;;;;;;6102205;23;20446;-88
2022/05/12 01:56:11;;;;;;;3.53;3.23;;;20.50;72.90;;;;;;6098831;23;20947;-88
2022/05/12 01:58:40;;;;;;;3.83;2.80;;;20.60;73.10;;;;;;6095589;23;20501;-87
2022/05/12 02:01:07;;;;;;;3.80;3.17;;;20.60;73.20;;;;;;6096739;23;20464;-87
2022/05/12 02:03:34;;;;;;;3.93;3.07;;;20.60;73.30;;;;;;6084547;23;20446;-87
2022/05/12 02:06:03;;;;;;;2.80;2.43;;;20.60;73.40;;;;;;6083610;23;20456;-86
2022/05/12 02:08:30;;;;;;;2.87;2.60;;;20.60;73.40;;;;;;6072903;23;20537;-88
2022/05/12 02:10:57;;;;;;;4.30;2.70;;;20.60;73.60;;;;;;6089798;23;20503;-88
2022/05/12 02:13:27;;;;;;;3.20;2.77;;;20.60;73.80;;;;;;6099925;23;20465;-88
2022/05/12 02:15:56;;;;;;;3.33;2.97;;;20.60;74.00;;;;;;6096190;23;20449;-87
2022/05/12 02:18:24;;;;;;;3.90;2.83;;;20.50;74.50;;;;;;6097635;23;20446;-88
2022/05/12 02:20:52;;;;;;;2.90;2.70;;;20.50;74.90;;;;;;6104838;23;20511;-86
2022/05/12 02:23:20;;;;;;;2.63;2.53;;;20.50;75.10;;;;;;6091270;23;20476;-87
2022/05/12 02:25:47;;;;;;;3.03;2.70;;;20.50;75.70;;;;;;6109304;23;20487;-87
2022/05/12 02:28:14;;;;;;;3.47;3.00;;;20.40;76.20;;;;;;6092809;23;20497;-88
2022/05/12 02:30:41;;;;;;;3.20;2.90;;;20.40;76.70;;;;;;6096101;23;20480;-87
2022/05/12 02:33:09;;;;;;;4.23;3.20;;;20.40;77.30;;;;;;6096561;23;20450;-88
2022/05/12 02:35:37;;;;;;;3.10;2.80;;;20.40;77.90;;;;;;6106484;23;20931;-86
2022/05/12 02:38:05;;;;;;;3.93;3.13;;;20.30;78.50;;;;;;6098650;23;20495;-87
2022/05/12 02:40:32;;;;;;;3.27;2.87;;;20.30;79.20;;;;;;6094714;23;20451;-86
2022/05/12 02:42:59;;;;;;;6.77;2.90;;;20.30;79.50;;;;;;6097697;23;20453;-87
2022/05/12 02:45:28;;;;;;;4.03;2.80;;;20.20;80.10;;;;;;6108070;23;20439;-88
2022/05/12 02:47:55;;;;;;;2.70;2.50;;;20.20;80.70;;;;;;6089676;23;20480;-87
2022/05/12 02:50:24;;;;;;;3.20;2.90;;;20.20;81.10;;;;;;6102868;23;20554;-87
2022/05/12 02:52:50;;;;;;;3.00;2.63;;;20.10;81.50;;;;;;6105190;23;20435;-87
2022/05/12 02:55:17;;;;;;;3.37;3.03;;;20.10;82.00;;;;;;6103800;23;20477;-87
2022/05/12 02:57:45;;;;;;;3.10;2.83;;;20.00;82.40;;;;;;6114790;23;20448;-87
2022/05/12 03:00:17;;;;;;;2.87;2.67;;;20.00;82.90;;;;;;6108904;23;21058;-87
2022/05/12 03:02:45;;;;;;;2.60;2.40;;;19.90;83.50;;;;;;6088786;23;20525;-87
2022/05/12 03:05:13;;;;;;;3.50;2.40;;;19.90;84.10;;;;;;6097038;23;20507;-87
2022/05/12 03:07:42;;;;;;;2.60;2.40;;;19.80;84.60;;;;;;6091786;23;20469;-87
2022/05/12 03:10:11;;;;;;;2.60;2.13;;;19.80;85.20;;;;;;6082525;23;20469;-87
2022/05/12 03:12:38;;;;;;;2.50;2.30;;;19.70;85.60;;;;;;6098527;23;20976;-86
2022/05/12 03:15:06;;;;;;;2.17;2.07;;;19.70;86.20;;;;;;6101949;23;20920;-87
2022/05/12 03:17:34;;;;;;;2.43;2.23;;;19.60;86.60;;;;;;6095211;23;20448;-87
2022/05/12 03:20:01;;;;;;;2.70;1.80;;;19.60;87.20;;;;;;6103081;23;20499;-88
2022/05/12 03:22:28;;;;;;;4.57;2.00;;;19.60;87.50;;;;;;6095267;23;20466;-87
2022/05/12 03:24:56;;;;;;;2.40;1.47;;;19.60;87.80;;;;;;6089873;23;20448;-86
2022/05/12 03:27:24;;;;;;;2.10;1.90;;;19.50;88.20;;;;;;6106556;23;20675;-87
2022/05/12 03:29:51;;;;;;;2.33;1.90;;;19.50;88.70;;;;;;6105804;23;20478;-84
2022/05/12 03:32:18;;;;;;;2.30;2.10;;;19.50;89.20;;;;;;6096710;23;20529;-87
2022/05/12 03:34:45;;;;;;;2.07;1.97;;;19.40;89.70;;;;;;6095708;23;20449;-86
2022/05/12 03:37:12;;;;;;;2.20;1.90;;;19.50;90.00;;;;;;6090686;23;20474;-81
2022/05/12 03:39:39;;;;;;;2.00;1.90;;;19.40;90.20;;;;;;6087445;23;20438;-79
2022/05/12 03:42:10;;;;;;;1.80;1.70;;;19.40;90.40;;;;;;6092084;23;20963;-80
2022/05/12 03:44:50;;;;;;;2.47;1.80;;;19.40;90.60;;;;;;6098511;23;20466;-80
2022/05/12 03:47:20;;;;;;;3.77;1.70;;;19.40;90.80;;;;;;6105641;23;20804;-80
2022/05/12 03:49:48;;;;;;;3.23;1.83;;;19.40;90.90;;;;;;6094335;23;21161;-80
2022/05/12 03:52:15;;;;;;;1.90;1.60;;;19.40;91.20;;;;;;6102586;23;20992;-81
2022/05/12 03:54:43;;;;;;;2.03;1.90;;;19.40;91.40;;;;;;6094814;23;20528;-79
2022/05/12 03:57:13;;;;;;;2.97;2.00;;;19.30;91.60;;;;;;6100899;23;20465;-80
2022/05/12 03:59:40;;;;;;;2.10;1.93;;;19.40;91.70;;;;;;6095165;23;20465;-80
2022/05/12 04:02:08;;;;;;;2.50;2.30;;;19.30;91.80;;;;;;6092521;23;20453;-80
2022/05/12 04:04:35;;;;;;;2.33;1.63;;;19.40;92.10;;;;;;6099663;23;20457;-80
2022/05/12 04:07:03;;;;;;;1.77;1.67;;;19.40;92.20;;;;;;6098337;23;20503;-80
2022/05/12 04:09:30;;;;;;;2.97;1.57;;;19.30;92.40;;;;;;6093072;23;20527;-79
2022/05/12 04:11:58;;;;;;;2.77;1.80;;;19.30;92.50;;;;;;6100855;23;20474;-83
2022/05/12 04:14:26;;;;;;;2.13;1.93;;;19.30;92.80;;;;;;6092359;23;20450;-87
2022/05/12 04:16:53;;;;;;;1.90;1.80;;;19.20;93.10;;;;;;6094975;23;20442;-86
2022/05/12 04:19:20;;;;;;;2.10;1.90;;;19.20;93.30;;;;;;6094019;23;20461;-85
2022/05/12 04:21:48;;;;;;;1.90;1.80;;;19.10;93.50;;;;;;6105984;23;20494;-86
2022/05/12 04:24:15;;;;;;;2.70;1.97;;;19.20;93.60;;;;;;6097660;23;20517;-86
2022/05/12 04:26:42;;;;;;;2.47;1.80;;;19.20;93.70;;;;;;6097728;23;21020;-84
2022/05/12 04:29:09;;;;;;;1.90;1.77;;;19.20;94.00;;;;;;6098110;23;20495;-84
2022/05/12 04:31:37;;;;;;;2.80;2.10;;;19.30;94.20;;;;;;6084407;23;20462;-86
2022/05/12 04:36:49;;;;;;;2.17;1.97;;;19.20;94.50;;;;;;6083604;23;20477;-87
2022/05/12 04:39:17;;;;;;;2.13;1.80;;;19.10;94.80;;;;;;6088302;23;20450;-88
2022/05/12 04:41:44;;;;;;;2.87;1.93;;;19.10;95.50;;;;;;6091058;23;20466;-89
2022/05/12 04:44:12;;;;;;;4.47;2.27;;;19.10;95.40;;;;;;6062441;23;20941;-87
2022/05/12 04:46:42;;;;;;;1.83;1.73;;;19.10;95.60;;;;;;6085579;23;20439;-87
2022/05/12 04:49:11;;;;;;;3.33;2.27;;;19.00;95.90;;;;;;6097907;23;20490;-87
2022/05/12 04:51:39;;;;;;;4.60;2.10;;;19.00;96.20;;;;;;6085651;23;20486;-79
2022/05/12 04:54:09;;;;;;;2.07;1.87;;;19.10;96.50;;;;;;6082415;23;20565;-86
2022/05/12 04:56:36;;;;;;;2.30;1.90;;;19.00;96.50;;;;;;6082307;23;20454;-86
2022/05/12 04:59:05;;;;;;;2.87;1.90;;;19.00;96.60;;;;;;6092204;23;20481;-86
2022/05/12 05:01:32;;;;;;;3.20;2.10;;;19.00;96.90;;;;;;6095607;23;20835;-86
2022/05/12 05:04:01;;;;;;;2.80;1.90;;;19.10;97.10;;;;;;6089458;23;20464;-86
2022/05/12 05:06:28;;;;;;;2.13;1.70;;;19.10;97.30;;;;;;6087025;23;20529;-85
2022/05/12 05:08:55;;;;;;;1.87;1.77;;;19.10;97.20;;;;;;6090550;23;20458;-85
2022/05/12 05:11:23;;;;;;;3.17;1.60;;;19.20;97.50;;;;;;6090048;23;20469;-86
2022/05/12 05:13:51;;;;;;;1.70;1.60;;;19.20;97.60;;;;;;6086271;23;20515;-86
2022/05/12 05:16:18;;;;;;;2.10;1.87;;;19.10;97.80;;;;;;6094896;23;20447;-79
2022/05/12 05:18:45;;;;;;;2.43;2.17;;;19.20;98.00;;;;;;6085519;23;20458;-85
2022/05/12 05:21:13;;;;;;;2.03;1.93;;;19.30;98.10;;;;;;6092597;23;20511;-86
2022/05/12 05:23:40;;;;;;;2.30;2.10;;;19.20;98.40;;;;;;6100717;23;20863;-85
2022/05/12 05:26:08;;;;;;;2.80;2.07;;;19.20;98.80;;;;;;6098100;23;20517;-85
2022/05/12 05:28:36;;;;;;;2.00;1.80;;;19.30;98.80;;;;;;6088425;23;20466;-85
2022/05/12 05:31:04;;;;;;;1.87;1.63;;;19.40;98.90;;;;;;6087371;23;20546;-86
2022/05/12 05:33:32;;;;;;;2.43;1.83;;;19.40;98.90;;;;;;6088903;23;20805;-87
2022/05/12 05:35:59;;;;;;;2.47;1.77;;;19.40;99.00;;;;;;6093765;23;20472;-85
2022/05/12 05:38:29;;;;;;;3.40;1.97;;;19.40;99.20;;;;;;6085391;23;20522;-86
2022/05/12 05:40:56;;;;;;;2.90;1.90;;;19.30;99.00;;;;;;6078318;23;20462;-85
2022/05/12 05:43:26;;;;;;;3.00;2.00;;;19.30;99.20;;;;;;6082941;23;20533;-85
2022/05/12 05:45:53;;;;;;;2.03;1.80;;;19.40;99.20;;;;;;6093095;23;20530;-86
2022/05/12 05:48:20;;;;;;;3.23;1.90;;;19.30;99.50;;;;;;6088891;23;20961;-85
2022/05/12 05:53:36;;;;;;;3.67;2.03;;;19.30;99.90;;;;;;6088171;23;20458;-85
2022/05/12 05:56:07;;;;;;;3.73;2.03;;;19.40;99.90;;;;;;6089842;23;20434;-86
2022/05/12 05:58:34;;;;;;;3.70;1.90;;;19.40;99.90;;;;;;6092399;23;20808;-85
2022/05/12 06:01:01;;;;;;;2.37;1.63;;;19.30;99.90;;;;;;6086698;23;20473;-87
2022/05/12 06:03:28;;;;;;;2.00;1.90;;;19.30;99.90;;;;;;6088752;23;20527;-85
2022/05/12 06:05:57;;;;;;;2.00;1.90;;;19.20;99.90;;;;;;6091504;23;20430;-85
2022/05/12 06:08:24;;;;;;;2.20;1.70;;;19.30;99.90;;;;;;6084842;23;20811;-85
2022/05/12 06:10:53;;;;;;;2.10;1.67;;;19.20;99.90;;;;;;6088719;23;20557;-85
2022/05/12 06:13:20;;;;;;;1.73;1.63;;;19.20;99.90;;;;;;6084553;23;20438;-86
2022/05/12 06:15:49;;;;;;;4.80;2.03;;;19.30;99.90;;;;;;6090923;23;20445;-84
2022/05/12 06:18:18;;;;;;;4.07;1.43;;;19.40;99.90;;;;;;6089532;23;20450;-86
2022/05/12 06:20:47;;;;;;;1.50;1.40;;;19.50;99.90;;;;;;6089079;23;20462;-85
2022/05/12 06:23:15;;;;;;;1.70;1.50;;;19.60;99.90;;;;;;6088923;23;20443;-85
2022/05/12 06:25:42;;;;;;;4.10;1.60;;;19.70;99.90;;;;;;6086258;23;20447;-85
2022/05/12 06:28:11;;;;;;;3.20;1.30;;;19.90;99.90;;;;;;6088239;23;20479;-86
2022/05/12 06:30:38;;;;;;;2.23;1.43;;;20.10;99.90;;;;;;6093938;23;20482;-85
2022/05/12 06:33:06;;;;;;;1.73;1.33;;;20.20;99.90;;;;;;6088000;23;20588;-86
2022/05/12 06:35:33;;;;;;;3.00;1.50;;;20.50;99.90;;;;;;6090771;23;20512;-86
2022/05/12 06:38:00;;;;;;;3.73;1.50;;;20.50;99.90;;;;;;6090790;23;20536;-86
2022/05/12 06:40:27;;;;;;;3.17;1.70;;;20.50;99.90;;;;;;6091711;23;20557;-86
2022/05/12 06:42:54;;;;;;;2.40;1.67;;;20.50;99.90;;;;;;6095362;23;20677;-86
2022/05/12 06:45:24;;;;;;;4.60;1.77;;;20.60;99.90;;;;;;6090403;23;20934;-86
2022/05/12 06:47:52;;;;;;;2.33;1.50;;;20.70;99.90;;;;;;6091474;23;20571;-86
2022/05/12 06:50:23;;;;;;;2.60;1.33;;;20.80;99.90;;;;;;6087070;23;20539;-86
2022/05/12 06:52:50;;;;;;;1.47;1.30;;;20.80;99.90;;;;;;6089010;23;20477;-86
2022/05/12 06:55:19;;;;;;;3.17;1.57;;;20.70;99.90;;;;;;6083310;23;20437;-85
2022/05/12 06:57:47;;;;;;;2.80;1.70;;;20.60;99.90;;;;;;6090694;23;20439;-86
2022/05/12 07:00:16;;;;;;;1.70;1.57;;;20.60;99.90;;;;;;6091818;23;20496;-86
2022/05/12 07:02:45;;;;;;;1.97;1.60;;;20.60;99.90;;;;;;6100475;23;20521;-86
2022/05/12 07:05:13;;;;;;;2.73;1.63;;;20.60;99.90;;;;;;6098965;23;20944;-86
2022/05/12 07:07:41;;;;;;;1.37;1.17;;;20.50;99.90;;;;;;6094484;23;20453;-86
2022/05/12 07:10:10;;;;;;;3.43;1.70;;;20.50;99.90;;;;;;6090097;23;20477;-85
2022/05/12 07:12:37;;;;;;;2.03;1.57;;;20.60;99.90;;;;;;6092667;23;20451;-86
2022/05/12 07:15:05;;;;;;;2.83;1.60;;;20.70;99.90;;;;;;6088693;23;20440;-85
2022/05/12 07:17:33;;;;;;;2.43;1.60;;;20.70;99.90;;;;;;6101373;23;20438;-86
2022/05/12 07:28:11;;;;;;;1.63;1.53;;;20.40;99.90;;;;;;6089156;23;21039;-86
2022/05/12 07:33:19;;;;;;;1.50;1.40;;;19.90;99.90;;;;;;6092308;23;20553;-86
2022/05/12 07:35:47;;;;;;;2.23;1.60;;;19.80;99.90;;;;;;6105110;23;20458;-86
2022/05/12 07:38:14;;;;;;;1.90;1.60;;;19.80;99.90;;;;;;6093671;23;20438;-85
2022/05/12 07:40:41;;;;;;;2.47;1.37;;;19.80;99.90;;;;;;6101798;23;20455;-86
2022/05/12 07:43:08;;;;;;;3.63;1.40;;;19.90;99.90;;;;;;6092296;23;20545;-86
2022/05/12 07:45:36;;;;;;;2.20;1.53;;;20.00;99.90;;;;;;6090405;23;20797;-86
2022/05/12 07:48:04;;;;;;;2.47;1.70;;;20.10;99.90;;;;;;6099217;23;20476;-86
2022/05/12 07:50:31;;;;;;;1.77;1.40;;;20.20;99.90;;;;;;6089822;23;20478;-86
2022/05/12 07:52:59;;;;;;;2.93;1.53;;;20.30;99.90;;;;;;6091146;23;20439;-86
2022/05/12 07:55:26;;;;;;;2.53;1.80;;;20.30;99.90;;;;;;6102478;23;20808;-86
2022/05/12 07:57:53;;;;;;;2.73;1.63;;;20.50;99.90;;;;;;6098056;23;20487;-86
2022/05/12 08:00:20;;;;;;;3.13;1.83;;;20.50;99.90;;;;;;6097625;23;20463;-86
2022/05/12 08:02:49;;;;;;;1.93;1.80;;;20.70;99.90;;;;;;6094024;23;20446;-85
2022/05/12 08:05:16;;;;;;;2.27;1.63;;;20.70;99.90;;;;;;6085723;23;20466;-86
2022/05/12 08:07:44;;;;;;;4.30;2.00;;;20.90;99.90;;;;;;6092662;23;20474;-86
2022/05/12 08:10:13;;;;;;;1.77;1.60;;;20.90;99.90;;;;;;6085104;23;20498;-86
2022/05/12 08:12:40;;;;;;;2.23;1.70;;;20.80;99.90;;;;;;6088092;23;20447;-86
2022/05/12 08:15:09;;;;;;;1.50;1.40;;;20.80;99.90;;;;;;6089709;23;20819;-86
2022/05/12 08:17:37;;;;;;;2.03;1.80;;;20.80;99.90;;;;;;6085812;23;20459;-85
2022/05/12 08:20:06;;;;;;;1.93;1.50;;;20.90;99.90;;;;;;6101081;23;20467;-87
2022/05/12 08:22:33;;;;;;;1.47;1.37;;;21.30;99.90;;;;;;6090538;23;20452;-86
2022/05/12 08:25:04;;;;;;;2.00;1.67;;;21.50;99.90;;;;;;6075421;23;20469;-86
2022/05/12 08:27:32;;;;;;;2.20;1.70;;;21.80;99.90;;;;;;6079212;23;20485;-86
2022/05/12 08:29:59;;;;;;;2.30;2.00;;;22.30;99.50;;;;;;6086978;23;20557;-85
2022/05/12 08:32:26;;;;;;;2.20;1.80;;;22.20;99.10;;;;;;6091739;23;20528;-85
2022/05/12 08:34:53;;;;;;;2.47;1.97;;;22.00;99.30;;;;;;6102668;23;20828;-84
2022/05/12 08:37:21;;;;;;;2.20;1.67;;;21.90;99.10;;;;;;6094398;23;20523;-86
2022/05/12 08:39:49;;;;;;;4.40;1.70;;;21.60;99.60;;;;;;6087304;23;20508;-85
2022/05/12 08:42:22;;;;;;;2.80;2.13;;;21.50;99.90;;;;;;6090049;23;20809;-85
2022/05/12 08:44:51;;;;;;;2.50;1.63;;;21.30;99.90;;;;;;6086721;23;20449;-87
2022/05/12 08:47:26;;;;;;;2.80;1.80;;;21.60;99.90;;;;;;6093987;23;20531;-86
2022/05/12 08:49:53;;;;;;;2.47;1.80;;;21.90;99.90;;;;;;6089428;23;21021;-86
2022/05/12 08:52:26;;;;;;;4.50;2.10;;;22.30;99.40;;;;;;6103297;23;20517;-86
2022/05/12 08:54:56;;;;;;;3.30;2.00;;;22.60;99.00;;;;;;6095379;23;20452;-87
2022/05/12 08:57:30;;;;;;;2.93;1.83;;;22.90;98.70;;;;;;6091436;23;20912;-86
2022/05/12 09:00:02;;;;;;;3.30;1.97;;;23.00;98.50;;;;;;6107674;23;20553;-87
2022/05/12 09:02:37;;;;;;;2.40;2.00;;;23.20;98.10;;;;;;6085447;23;20477;-86
2022/05/12 09:05:08;;;;;;;3.13;1.97;;;23.00;97.80;;;;;;6093433;23;20812;-86
2022/05/12 09:07:42;;;;;;;2.23;1.87;;;22.90;97.90;;;;;;6054877;23;20446;-86
2022/05/12 09:10:16;;;;;;;2.43;1.90;;;22.90;98.10;;;;;;6092465;23;20473;-85
2022/05/12 09:12:49;;;;;;;2.20;1.93;;;22.90;98.70;;;;;;6105120;23;20518;-87
2022/05/12 09:15:23;;;;;;;6.50;2.10;;;23.20;97.70;;;;;;6097127;23;20875;-86
2022/05/12 09:17:55;;;;;;;2.63;2.40;;;23.30;97.70;;;;;;6111109;23;20450;-87
2022/05/12 09:20:23;;;;;;;2.40;2.03;;;23.60;97.60;;;;;;6107781;23;20462;-87
2022/05/12 09:22:50;;;;;;;1.90;1.80;;;23.90;96.90;;;;;;6103135;23;20446;-87
2022/05/12 09:25:31;;;;;;;3.07;1.70;;;24.20;96.30;;;;;;6094775;23;20458;-86
2022/05/12 09:27:59;;;;;;;3.83;2.13;;;24.50;96.40;;;;;;6102193;23;20499;-86
2022/05/12 09:30:36;;;;;;;3.10;2.17;;;24.90;96.00;;;;;;6101600;23;20530;-85
2022/05/12 09:33:05;;;;;;;2.47;1.90;;;25.60;94.80;;;;;;6104066;23;20511;-87
2022/05/12 09:35:32;;;;;;;2.43;2.23;;;25.70;93.90;;;;;;6086724;23;20442;-86
2022/05/12 09:37:59;;;;;;;2.70;2.50;;;25.80;93.40;;;;;;6100254;23;20948;-86
2022/05/12 09:40:36;;;;;;;2.73;1.77;;;25.50;93.40;;;;;;6091095;23;20458;-86
2022/05/12 09:43:18;;;;;;;2.20;2.00;;;25.70;93.90;;;;;;6089862;23;20921;-86
2022/05/12 09:46:01;;;;;;;2.40;2.20;;;26.30;92.80;;;;;;6088179;23;20452;-86
2022/05/12 09:48:29;;;;;;;2.90;2.43;;;26.70;92.40;;;;;;6089469;23;20435;-86
2022/05/12 09:51:14;;;;;;;3.00;2.70;;;26.70;91.60;;;;;;6091668;23;20461;-86
2022/05/12 09:53:42;;;;;;;2.33;2.00;;;26.90;91.20;;;;;;6099772;23;20433;-86
2022/05/12 09:56:18;;;;;;;2.60;2.30;;;27.00;90.90;;;;;;6093531;23;20454;-86
2022/05/12 09:58:51;;;;;;;3.10;2.27;;;27.40;90.70;;;;;;6090689;23;20499;-87
2022/05/12 10:01:23;;;;;;;2.27;1.93;;;28.00;89.70;;;;;;6097171;23;20478;-86
2022/05/12 10:09:25;;;;;;;2.30;2.10;;;29.40;83.70;;;;;;6081538;23;21032;-87
2022/05/12 10:12:01;;;;;;;3.50;2.63;;;29.50;82.30;;;;;;6107920;23;20474;-86
2022/05/12 10:14:37;;;;;;;3.40;2.27;;;29.90;81.10;;;;;;6097152;23;20485;-86
2022/05/12 10:17:21;;;;;;;2.00;1.90;;;30.00;80.40;;;;;;6097262;23;20438;-87
2022/05/12 10:19:50;;;;;;;2.53;2.30;;;30.30;78.10;;;;;;6084442;23;20797;-87
2022/05/12 10:22:23;;;;;;;2.57;2.37;;;30.50;76.50;;;;;;6099088;23;20438;-87
2022/05/12 10:25:00;;;;;;;2.53;2.00;;;29.90;75.80;;;;;;6091030;23;20793;-87
2022/05/12 10:27:40;;;;;;;2.57;2.10;;;28.60;78.50;;;;;;6109175;23;20925;-87
2022/05/12 10:30:21;;;;;;;2.43;2.23;;;28.50;80.00;;;;;;6094746;23;20536;-86
2022/05/12 10:33:04;;;;;;;3.27;2.43;;;28.70;78.90;;;;;;6093408;23;20523;-87
2022/05/12 10:35:36;;;;;;;2.37;2.10;;;29.30;78.40;;;;;;6105822;23;20799;-87
2022/05/12 10:38:08;;;;;;;3.00;2.40;;;30.20;77.20;;;;;;6093554;23;20446;-88
2022/05/12 10:40:41;;;;;;;2.50;2.30;;;30.80;73.80;;;;;;6101445;23;20524;-88
2022/05/12 10:43:35;;;;;;;5.10;2.60;;;31.00;73.60;;;;;;6098961;23;20548;-88
2022/05/12 10:46:11;;;;;;;2.73;2.53;;;31.60;71.20;;;;;;6106111;23;20442;-88
2022/05/12 10:48:49;;;;;;;2.90;2.40;;;31.00;70.60;;;;;;6103357;23;20477;-87
2022/05/12 10:51:25;;;;;;;3.10;2.90;;;30.90;72.80;;;;;;6101533;23;20466;-88
2022/05/12 10:54:06;;;;;;;3.10;2.43;;;31.40;69.60;;;;;;6109753;23;20472;-88
2022/05/12 10:56:38;;;;;;;3.70;2.47;;;30.80;69.40;;;;;;6107494;23;20490;-88
2022/05/12 10:59:29;;;;;;;2.70;2.50;;;30.60;69.90;;;;;;6105837;23;20915;-88
2022/05/12 11:02:02;;;;;;;2.47;2.27;;;30.20;71.20;;;;;;6099033;23;20454;-88
2022/05/12 11:04:38;;;;;;;2.70;2.10;;;29.70;73.00;;;;;;6083195;23;20462;-86
2022/05/12 11:07:09;;;;;;;3.80;3.47;;;29.70;72.70;;;;;;6093602;23;20445;-87
2022/05/12 11:09:40;;;;;;;3.03;2.77;;;29.50;72.20;;;;;;6107551;23;21025;-88
2022/05/12 11:12:21;;;;;;;3.10;2.37;;;29.60;72.70;;;;;;6081759;23;20450;-88
2022/05/12 11:14:55;;;;;;;2.40;2.20;;;29.90;71.40;;;;;;6096266;23;20533;-87
2022/05/12 11:17:31;;;;;;;2.70;2.50;;;30.50;71.40;;;;;;6072760;23;20439;-88
2022/05/12 11:20:10;;;;;;;2.90;2.37;;;30.60;70.20;;;;;;6096888;23;20480;-88
2022/05/12 11:22:44;;;;;;;4.23;2.70;;;30.70;69.40;;;;;;6089317;23;20500;-88
2022/05/12 11:25:17;;;;;;;3.07;2.50;;;30.90;69.00;;;;;;6100472;23;20793;-87
2022/05/12 11:27:53;;;;;;;4.43;2.53;;;31.10;68.80;;;;;;6100502;23;20446;-85
2022/05/12 11:30:32;;;;;;;2.60;2.40;;;30.90;68.20;;;;;;6091146;23;20462;-86
2022/05/12 11:33:12;;;;;;;3.20;2.83;;;30.70;69.20;;;;;;6094710;23;20472;-87
2022/05/12 11:35:44;;;;;;;2.77;2.57;;;31.00;68.60;;;;;;6097659;23;20742;-88
2022/05/12 11:38:43;;;;;;;5.53;2.43;;;31.40;67.50;;;;;;6093329;23;20530;-88
2022/05/12 11:41:40;;;;;;;2.20;2.10;;;31.60;66.30;;;;;;6095013;23;20477;-88
2022/05/12 11:44:38;;;;;;;4.30;2.70;;;31.20;66.20;;;;;;6097236;23;20453;-89
2022/05/12 11:47:40;;;;;;;2.33;1.83;;;31.20;66.60;;;;;;6098251;23;20439;-89
2022/05/12 11:50:26;;;;;;;2.70;2.30;;;31.00;67.30;;;;;;6084825;23;20515;-89
2022/05/12 11:53:01;;;;;;;2.30;2.10;;;31.40;68.30;;;;;;6092394;23;20940;-89
2022/05/12 11:55:31;;;;;;;3.77;2.50;;;31.50;66.30;;;;;;6088207;23;21125;-87
2022/05/12 11:58:35;;;;;;;2.67;2.23;;;31.70;64.90;;;;;;6095805;23;20954;-88
2022/05/12 12:01:04;;;;;;;4.30;2.53;;;31.90;65.90;;;;;;6090329;23;20450;-88
2022/05/12 12:03:52;;;;;;;2.30;2.10;;;32.00;64.80;;;;;;6089176;23;20449;-88
2022/05/12 12:06:40;;;;;;;4.60;2.27;;;32.00;65.30;;;;;;6075430;23;20521;-89
2022/05/12 12:09:49;;;;;;;3.23;2.30;;;32.30;64.70;;;;;;6083648;23;20499;-89
2022/05/12 12:12:50;;;;;;;2.53;2.30;;;32.20;63.60;;;;;;6105448;23;20466;-89
2022/05/12 12:15:42;;;;;;;3.10;2.13;;;32.50;63.60;;;;;;6061221;23;20929;-88
2022/05/12 12:18:47;;;;;;;2.93;2.63;;;32.60;63.30;;;;;;6047418;23;20944;-88
2022/05/12 12:21:40;;;;;;;2.10;2.00;;;31.80;62.80;;;;;;6114196;23;20863;-89
2022/05/12 12:24:43;;;;;;;2.60;2.40;;;31.50;64.60;;;;;;6097156;23;20448;-89
2022/05/12 12:28:02;;;;;;;2.37;2.17;;;30.90;66.00;;;;;;6045235;23;20588;-89
2022/05/12 12:30:39;;;;;;;2.90;2.20;;;31.20;65.90;;;;;;6095842;23;20477;-89
2022/05/12 12:33:17;;;;;;;2.77;2.23;;;31.30;65.60;;;;;;6089295;23;20446;-89
2022/05/12 12:36:00;;;;;;;2.50;2.30;;;31.70;65.80;;;;;;6100688;23;20445;-87
2022/05/12 12:39:04;;;;;;;4.00;2.27;;;32.10;64.30;;;;;;6093679;23;20478;-89
2022/05/12 12:41:36;;;;;;;4.53;2.80;;;32.10;63.90;;;;;;6096357;23;20504;-89
2022/05/12 12:44:09;;;;;;;2.37;2.17;;;31.50;64.60;;;;;;6109273;23;20941;-87
2022/05/12 12:46:45;;;;;;;2.50;1.97;;;31.60;65.20;;;;;;6095642;23;20431;-89
2022/05/12 12:49:19;;;;;;;3.70;2.40;;;32.00;65.20;;;;;;6117097;23;20923;-89
2022/05/12 12:51:54;;;;;;;2.90;2.70;;;32.20;64.30;;;;;;6089631;23;20499;-89
2022/05/12 12:57:10;;;;;;;3.90;2.53;;;32.00;64.70;;;;;;6119949;23;20457;-89
2022/05/12 12:59:42;;;;;;;5.97;3.30;;;31.70;63.90;;;;;;6092519;23;20518;-87
2022/05/12 13:02:27;;;;;;;3.57;2.80;;;32.00;64.10;;;;;;6110017;23;20997;-89
2022/05/12 13:04:58;;;;;;;3.40;2.37;;;32.30;63.50;;;;;;6078729;23;20440;-87
2022/05/12 13:07:28;;;;;;;2.67;2.47;;;32.60;63.50;;;;;;6111727;23;20443;-89
2022/05/12 13:09:57;;;;;;;2.87;2.67;;;33.10;62.60;;;;;;6093589;23;20484;-89
2022/05/12 13:12:27;;;;;;;2.30;2.20;;;33.80;60.70;;;;;;6089139;23;21051;-90
2022/05/12 13:15:00;;;;;;;3.10;2.50;;;34.30;60.60;;;;;;6092829;23;20504;-87
2022/05/12 13:17:30;;;;;;;2.90;2.67;;;34.50;60.10;;;;;;6090749;23;20534;-87
2022/05/12 13:20:01;;;;;;;2.50;2.30;;;34.60;59.20;;;;;;6087856;23;20477;-89
2022/05/12 13:22:31;;;;;;;2.67;2.47;;;34.30;58.90;;;;;;6067227;23;20450;-89
2022/05/12 13:25:00;;;;;;;3.50;2.40;;;35.40;58.10;;;;;;6084217;23;21409;-89
2022/05/12 13:27:38;;;;;;;4.43;2.63;;;37.20;55.70;;;;;;6090784;23;20534;-89
2022/05/12 13:30:07;;;;;;;2.70;2.37;;;38.60;54.20;;;;;;6081718;23;20490;-90
2022/05/12 13:32:37;;;;;;;2.23;2.00;;;40.10;51.40;;;;;;6087902;23;20554;-90